Time;durP1;ratioP1;P1;durP2;ratioP2;P2;SDS_P1;SDS_P2;PMS_P1;PMS_P2;Temp;Humidity;BMP_temperature;BMP_pressure;BME280_temperature;BME280_humidity;BME280_pressure;Samples;Min_cycle;Max_cycle;Signal;HPM_P1;HPM_P2
2021/01/11 00:00:22;;;;;;;2.47;0.50;;;;;;;;;;5022541;28;20128;-56
2021/01/11 00:02:48;;;;;;;4.15;0.60;;;;;;;;;;5021872;28;20486;-57
2021/01/11 00:05:14;;;;;;;2.67;0.63;;;;;;;;;;5022402;28;20053;-57
2021/01/11 00:07:43;;;;;;;2.10;0.50;;;;;;;;;;5021299;28;20039;-56
2021/01/11 00:10:09;;;;;;;1.98;0.50;;;;;;;;;;5019022;28;20038;-54
2021/01/11 00:12:39;;;;;;;1.48;0.50;;;;;;;;;;5020549;28;20097;-57
2021/01/11 00:15:08;;;;;;;0.98;0.50;;;;;;;;;;5021577;28;20060;-58
2021/01/11 00:17:34;;;;;;;1.77;0.50;;;;;;;;;;5020039;28;20037;-55
2021/01/11 00:20:01;;;;;;;1.73;0.50;;;;;;;;;;5021832;28;20044;-59
2021/01/11 00:22:27;;;;;;;2.42;0.50;;;;;;;;;;5022886;28;20033;-57
2021/01/11 00:24:52;;;;;;;2.80;0.60;;;;;;;;;;5021706;28;20046;-56
2021/01/11 00:27:18;;;;;;;1.63;0.52;;;;;;;;;;5017047;28;20037;-56
2021/01/11 00:29:44;;;;;;;5.40;1.35;;;;;;;;;;5018910;28;20060;-56
2021/01/11 00:32:10;;;;;;;8.00;1.63;;;;;;;;;;5020111;28;20052;-57
2021/01/11 00:34:36;;;;;;;9.90;2.63;;;;;;;;;;5019412;28;20101;-57
2021/01/11 00:37:02;;;;;;;4.63;1.30;;;;;;;;;;5020293;28;20045;-57
2021/01/11 00:39:31;;;;;;;2.83;0.90;;;;;;;;;;5019663;28;20168;-56
2021/01/11 00:41:59;;;;;;;4.35;0.70;;;;;;;;;;5023281;28;20037;-56
2021/01/11 00:44:26;;;;;;;4.18;1.02;;;;;;;;;;5021476;28;20034;-59
2021/01/11 00:46:52;;;;;;;7.57;1.67;;;;;;;;;;5020914;28;20134;-58
2021/01/11 00:49:18;;;;;;;5.63;1.88;;;;;;;;;;5020203;28;20088;-56
2021/01/11 00:51:46;;;;;;;5.38;2.30;;;;;;;;;;5026025;28;20038;-57
2021/01/11 00:54:12;;;;;;;3.83;1.50;;;;;;;;;;5010880;28;20060;-56
2021/01/11 00:56:37;;;;;;;4.13;1.80;;;;;;;;;;5018694;28;20045;-58
2021/01/11 00:59:04;;;;;;;5.90;1.20;;;;;;;;;;5020888;28;20132;-55
2021/01/11 01:01:30;;;;;;;3.70;0.85;;;;;;;;;;5020167;28;20045;-56
2021/01/11 01:03:56;;;;;;;2.67;0.88;;;;;;;;;;5020450;28;20053;-58
2021/01/11 01:06:21;;;;;;;5.00;1.17;;;;;;;;;;5021503;28;20054;-59
2021/01/11 01:08:47;;;;;;;3.95;1.23;;;;;;;;;;5011394;28;20041;-55
2021/01/11 01:11:13;;;;;;;3.30;1.00;;;;;;;;;;5016026;28;20034;-54
2021/01/11 01:13:39;;;;;;;3.20;1.27;;;;;;;;;;5021295;28;20034;-61
2021/01/11 01:16:05;;;;;;;1.42;0.50;;;;;;;;;;5023195;28;20051;-57
2021/01/11 01:18:32;;;;;;;3.13;0.93;;;;;;;;;;5010774;28;20103;-57
2021/01/11 01:20:58;;;;;;;2.78;0.95;;;;;;;;;;5020816;28;20041;-59
2021/01/11 01:23:24;;;;;;;2.28;0.70;;;;;;;;;;5019788;28;20033;-58
2021/01/11 01:25:50;;;;;;;2.95;0.70;;;;;;;;;;5019939;28;20037;-58
2021/01/11 01:28:16;;;;;;;2.25;0.73;;;;;;;;;;5017837;28;20053;-58
2021/01/11 01:30:42;;;;;;;1.90;0.50;;;;;;;;;;5017997;28;20069;-57
2021/01/11 01:33:08;;;;;;;1.27;0.43;;;;;;;;;;5018477;28;20042;-59
2021/01/11 01:35:34;;;;;;;1.50;0.40;;;;;;;;;;5018896;28;20089;-58
2021/01/11 01:38:00;;;;;;;1.52;0.55;;;;;;;;;;5019189;28;20065;-53
2021/01/11 01:40:26;;;;;;;1.40;0.50;;;;;;;;;;5019062;28;20030;-58
2021/01/11 01:42:52;;;;;;;3.03;0.60;;;;;;;;;;5020512;28;20053;-58
2021/01/11 01:45:19;;;;;;;1.42;0.43;;;;;;;;;;5018033;28;20147;-56
2021/01/11 01:47:46;;;;;;;1.20;0.40;;;;;;;;;;5017735;28;20041;-58
2021/01/11 01:50:12;;;;;;;1.45;0.50;;;;;;;;;;5017324;28;21020;-56
2021/01/11 01:52:39;;;;;;;0.98;0.40;;;;;;;;;;5019824;28;20046;-58
2021/01/11 01:55:05;;;;;;;1.02;0.40;;;;;;;;;;5018231;28;20042;-57
2021/01/11 01:57:32;;;;;;;2.60;0.95;;;;;;;;;;5017572;28;20081;-57
2021/01/11 02:00:01;;;;;;;2.15;0.50;;;;;;;;;;5019719;28;20061;-56
2021/01/11 02:02:27;;;;;;;1.45;0.50;;;;;;;;;;5018728;28;20038;-58
2021/01/11 02:04:53;;;;;;;1.38;0.40;;;;;;;;;;5018102;28;20050;-58
2021/01/11 02:07:33;;;;;;;1.40;0.50;;;;;;;;;;5017676;28;20181;-56
2021/01/11 02:10:02;;;;;;;1.90;0.60;;;;;;;;;;5033332;28;20045;-58
2021/01/11 02:12:44;;;;;;;0.52;0.35;;;;;;;;;;5018940;28;20046;-57
2021/01/11 02:15:17;;;;;;;1.65;0.50;;;;;;;;;;5018645;28;20056;-58
2021/01/11 02:18:00;;;;;;;1.48;0.50;;;;;;;;;;5018980;28;20044;-53
2021/01/11 02:20:43;;;;;;;1.33;0.47;;;;;;;;;;5017445;28;20038;-56
2021/01/11 02:23:27;;;;;;;0.82;0.40;;;;;;;;;;5017542;28;20037;-57
2021/01/11 02:25:59;;;;;;;1.95;0.50;;;;;;;;;;5017403;28;20126;-57
2021/01/11 02:28:42;;;;;;;3.00;0.40;;;;;;;;;;5023908;28;20073;-57
2021/01/11 02:31:09;;;;;;;1.63;0.50;;;;;;;;;;5021125;28;20045;-57
2021/01/11 02:33:36;;;;;;;1.85;0.45;;;;;;;;;;5016492;28;20109;-58
2021/01/11 02:36:06;;;;;;;1.05;0.40;;;;;;;;;;5019754;28;20136;-57
2021/01/11 02:38:33;;;;;;;4.78;0.60;;;;;;;;;;5015306;28;20045;-56
2021/01/11 02:40:59;;;;;;;1.45;0.50;;;;;;;;;;5018317;28;20084;-56
2021/01/11 02:43:25;;;;;;;1.38;0.40;;;;;;;;;;5018448;28;20101;-56
2021/01/11 02:45:51;;;;;;;1.35;0.45;;;;;;;;;;5017761;28;20068;-56
2021/01/11 02:48:22;;;;;;;1.67;0.50;;;;;;;;;;5022027;28;20033;-56
2021/01/11 02:50:57;;;;;;;1.60;0.40;;;;;;;;;;5022268;28;20042;-57
2021/01/11 02:53:28;;;;;;;2.38;0.60;;;;;;;;;;5020389;28;20199;-57
2021/01/11 02:56:02;;;;;;;1.92;0.50;;;;;;;;;;5022610;28;20105;-56
2021/01/11 02:58:53;;;;;;;0.90;0.40;;;;;;;;;;5022913;28;20079;-57
2021/01/11 03:01:20;;;;;;;1.25;0.40;;;;;;;;;;5020276;28;20084;-56
2021/01/11 03:03:51;;;;;;;1.17;0.50;;;;;;;;;;5022588;28;20475;-56
2021/01/11 03:06:17;;;;;;;3.38;1.02;;;;;;;;;;5019932;28;20180;-57
2021/01/11 03:08:44;;;;;;;2.90;0.52;;;;;;;;;;5020467;28;20034;-60
2021/01/11 03:11:10;;;;;;;1.23;0.50;;;;;;;;;;5013700;28;20063;-57
2021/01/11 03:13:35;;;;;;;3.10;1.40;;;;;;;;;;5021606;28;20057;-59
2021/01/11 03:16:01;;;;;;;2.10;0.60;;;;;;;;;;5020419;28;20054;-57
2021/01/11 03:18:27;;;;;;;2.45;0.80;;;;;;;;;;5020857;28;20042;-58
2021/01/11 03:20:53;;;;;;;2.75;0.60;;;;;;;;;;5012366;28;20034;-56
2021/01/11 03:23:20;;;;;;;0.98;0.40;;;;;;;;;;5018345;28;20072;-58
2021/01/11 03:25:46;;;;;;;2.38;0.50;;;;;;;;;;5018751;28;20068;-56
2021/01/11 03:28:14;;;;;;;1.27;0.47;;;;;;;;;;5019690;28;20053;-58
2021/01/11 03:30:40;;;;;;;1.38;0.40;;;;;;;;;;5020070;28;20050;-57
2021/01/11 03:33:06;;;;;;;1.55;0.50;;;;;;;;;;5026012;28;20323;-56
2021/01/11 03:35:32;;;;;;;1.88;0.50;;;;;;;;;;5019172;28;20064;-58
2021/01/11 03:37:58;;;;;;;1.45;0.40;;;;;;;;;;5020203;28;20037;-58
2021/01/11 03:40:24;;;;;;;1.65;0.50;;;;;;;;;;5020042;28;20100;-58
2021/01/11 03:42:49;;;;;;;2.28;0.50;;;;;;;;;;5020570;28;20038;-57
2021/01/11 03:45:15;;;;;;;1.95;0.50;;;;;;;;;;5019792;28;20065;-56
2021/01/11 03:47:41;;;;;;;2.20;0.60;;;;;;;;;;5018584;28;20056;-57
2021/01/11 03:50:07;;;;;;;2.40;0.50;;;;;;;;;;5018561;28;20038;-58
2021/01/11 03:52:40;;;;;;;2.08;0.60;;;;;;;;;;5017463;28;20042;-59
2021/01/11 03:55:06;;;;;;;2.08;0.55;;;;;;;;;;5018065;28;20068;-58
2021/01/11 03:57:32;;;;;;;0.85;0.40;;;;;;;;;;5014223;28;20737;-57
2021/01/11 03:59:58;;;;;;;1.88;0.50;;;;;;;;;;5018004;28;20133;-57
2021/01/11 04:02:24;;;;;;;1.23;0.45;;;;;;;;;;5019898;28;20125;-57
2021/01/11 04:04:50;;;;;;;3.08;0.60;;;;;;;;;;5019663;28;20053;-58
2021/01/11 04:07:16;;;;;;;1.40;0.50;;;;;;;;;;5017656;28;20042;-57
2021/01/11 04:09:42;;;;;;;1.85;0.50;;;;;;;;;;5017826;28;20061;-58
2021/01/11 04:12:08;;;;;;;2.08;0.40;;;;;;;;;;5017495;28;20040;-57
2021/01/11 04:14:34;;;;;;;1.45;0.50;;;;;;;;;;5018467;28;20046;-58
2021/01/11 04:17:00;;;;;;;1.52;0.50;;;;;;;;;;5019489;28;20091;-58
2021/01/11 04:19:26;;;;;;;1.88;0.50;;;;;;;;;;5019501;28;20058;-58
2021/01/11 04:21:51;;;;;;;1.60;0.43;;;;;;;;;;5018882;28;20564;-58
2021/01/11 04:24:17;;;;;;;1.08;0.40;;;;;;;;;;5019559;28;20045;-59
2021/01/11 04:26:44;;;;;;;1.52;0.50;;;;;;;;;;5018742;28;20831;-57
2021/01/11 04:29:09;;;;;;;1.95;0.60;;;;;;;;;;5019514;28;20042;-57
2021/01/11 04:31:35;;;;;;;2.10;0.50;;;;;;;;;;5019277;28;20041;-56
2021/01/11 04:34:01;;;;;;;3.67;0.50;;;;;;;;;;5019675;28;20041;-57
2021/01/11 04:36:27;;;;;;;2.17;0.55;;;;;;;;;;5017075;28;20068;-57
2021/01/11 04:38:53;;;;;;;1.75;0.50;;;;;;;;;;5019518;28;20135;-58
2021/01/11 04:41:20;;;;;;;0.82;0.40;;;;;;;;;;5018228;28;20034;-57
2021/01/11 04:43:49;;;;;;;3.22;0.40;;;;;;;;;;5019227;28;20037;-57
2021/01/11 04:46:15;;;;;;;2.28;0.50;;;;;;;;;;5018744;28;20486;-57
2021/01/11 04:48:41;;;;;;;1.65;0.47;;;;;;;;;;5018992;28;20071;-56
2021/01/11 04:51:07;;;;;;;1.73;0.50;;;;;;;;;;5019933;28;20042;-58
2021/01/11 04:53:34;;;;;;;2.13;0.40;;;;;;;;;;5018111;28;20048;-57
2021/01/11 04:56:00;;;;;;;1.92;0.60;;;;;;;;;;5018608;28;20156;-56
2021/01/11 04:58:29;;;;;;;2.60;0.90;;;;;;;;;;5019316;28;20045;-56
2021/01/11 05:00:59;;;;;;;2.47;0.90;;;;;;;;;;5017490;28;20042;-56
2021/01/11 05:03:25;;;;;;;2.20;0.70;;;;;;;;;;5017321;28;20129;-57
2021/01/11 05:05:51;;;;;;;3.15;0.80;;;;;;;;;;5019029;28;20708;-57
2021/01/11 05:08:16;;;;;;;2.95;0.98;;;;;;;;;;5016428;28;20037;-57
2021/01/11 05:10:42;;;;;;;4.18;0.70;;;;;;;;;;5017408;28;20051;-57
2021/01/11 05:13:09;;;;;;;2.17;0.55;;;;;;;;;;5018157;28;20046;-57
2021/01/11 05:15:39;;;;;;;2.03;0.50;;;;;;;;;;5017155;28;20070;-56
2021/01/11 05:18:15;;;;;;;3.05;0.90;;;;;;;;;;5014945;28;20037;-57
2021/01/11 05:20:41;;;;;;;3.58;1.00;;;;;;;;;;5012215;28;20188;-57
2021/01/11 05:23:08;;;;;;;3.17;0.80;;;;;;;;;;5011133;28;20146;-57
2021/01/11 05:25:35;;;;;;;3.03;0.75;;;;;;;;;;5011360;28;20033;-57
2021/01/11 05:28:06;;;;;;;2.38;0.60;;;;;;;;;;5012461;28;20054;-57
2021/01/11 05:30:34;;;;;;;3.75;0.60;;;;;;;;;;5011635;28;20142;-57
2021/01/11 05:33:00;;;;;;;3.05;0.80;;;;;;;;;;5016345;28;20034;-57
2021/01/11 05:35:26;;;;;;;3.53;0.80;;;;;;;;;;5014698;28;20081;-56
2021/01/11 05:37:54;;;;;;;3.97;1.10;;;;;;;;;;5014580;28;20041;-57
2021/01/11 05:40:21;;;;;;;4.85;1.10;;;;;;;;;;5015227;28;20057;-55
2021/01/11 05:42:53;;;;;;;2.38;0.60;;;;;;;;;;5017217;28;20042;-56
2021/01/11 05:45:28;;;;;;;3.60;0.70;;;;;;;;;;5014854;28;20038;-56
2021/01/11 05:48:07;;;;;;;4.30;0.50;;;;;;;;;;5014751;28;20053;-55
2021/01/11 05:50:33;;;;;;;2.70;0.70;;;;;;;;;;5016567;28;20041;-55
2021/01/11 05:53:00;;;;;;;3.17;0.90;;;;;;;;;;5017819;28;20164;-56
2021/01/11 05:55:27;;;;;;;3.00;0.85;;;;;;;;;;5015407;28;20034;-56
2021/01/11 05:57:54;;;;;;;3.63;0.70;;;;;;;;;;5015644;28;20202;-56
2021/01/11 06:00:21;;;;;;;2.35;0.60;;;;;;;;;;5017559;28;20065;-56
2021/01/11 06:02:48;;;;;;;3.65;1.10;;;;;;;;;;5018099;28;20041;-55
2021/01/11 06:05:16;;;;;;;2.70;0.73;;;;;;;;;;5018092;28;20100;-56
2021/01/11 06:07:43;;;;;;;2.15;0.63;;;;;;;;;;5016679;28;20426;-57
2021/01/11 06:10:09;;;;;;;2.10;0.50;;;;;;;;;;5016885;28;20704;-57
2021/01/11 06:12:35;;;;;;;2.42;0.70;;;;;;;;;;5015450;28;20033;-56
2021/01/11 06:15:02;;;;;;;1.92;0.60;;;;;;;;;;5016535;28;20254;-57
2021/01/11 06:17:30;;;;;;;1.70;0.52;;;;;;;;;;5015792;28;20060;-56
2021/01/11 06:19:56;;;;;;;2.40;0.70;;;;;;;;;;5018217;28;20159;-56
2021/01/11 06:22:42;;;;;;;1.77;0.50;;;;;;;;;;5019933;28;20074;-55
2021/01/11 06:25:20;;;;;;;1.65;0.50;;;;;;;;;;5021981;28;20038;-57
2021/01/11 06:28:03;;;;;;;1.88;0.50;;;;;;;;;;5021457;28;20065;-57
2021/01/11 06:30:36;;;;;;;0.63;0.40;;;;;;;;;;5021009;28;20050;-56
2021/01/11 06:33:14;;;;;;;1.63;0.43;;;;;;;;;;5022245;28;20061;-56
2021/01/11 06:35:40;;;;;;;1.45;0.47;;;;;;;;;;5021937;28;20902;-57
2021/01/11 06:38:06;;;;;;;1.73;0.40;;;;;;;;;;5030273;28;20053;-57
2021/01/11 06:40:33;;;;;;;1.20;0.40;;;;;;;;;;5031219;28;20056;-57
2021/01/11 06:42:59;;;;;;;1.70;0.50;;;;;;;;;;5023477;28;20121;-57
2021/01/11 06:45:35;;;;;;;4.10;0.50;;;;;;;;;;5020532;28;20052;-56
2021/01/11 06:48:08;;;;;;;1.38;0.40;;;;;;;;;;5021389;28;20056;-56
2021/01/11 06:50:34;;;;;;;1.50;0.40;;;;;;;;;;5022453;28;20119;-56
2021/01/11 06:53:01;;;;;;;1.17;0.40;;;;;;;;;;5021498;28;20041;-57
2021/01/11 06:55:28;;;;;;;2.05;0.50;;;;;;;;;;5019816;28;20050;-57
2021/01/11 06:57:58;;;;;;;1.90;0.50;;;;;;;;;;5020016;28;20731;-57
2021/01/11 07:00:34;;;;;;;1.90;0.60;;;;;;;;;;5038142;28;20041;-57
2021/01/11 07:03:01;;;;;;;2.10;0.52;;;;;;;;;;5024225;28;20038;-56
2021/01/11 07:05:33;;;;;;;1.90;0.60;;;;;;;;;;5020782;28;20034;-56
2021/01/11 07:08:02;;;;;;;3.95;0.80;;;;;;;;;;5022582;28;20069;-57
2021/01/11 07:10:28;;;;;;;3.88;0.82;;;;;;;;;;5021572;28;20096;-57
2021/01/11 07:13:12;;;;;;;3.53;0.70;;;;;;;;;;5021844;28;20046;-57
2021/01/11 07:15:38;;;;;;;2.40;0.70;;;;;;;;;;5019249;28;20045;-56
2021/01/11 07:18:05;;;;;;;3.08;0.82;;;;;;;;;;5021490;28;20069;-56
2021/01/11 07:20:41;;;;;;;3.20;0.75;;;;;;;;;;5020160;28;20068;-56
2021/01/11 07:23:07;;;;;;;3.45;0.75;;;;;;;;;;5020151;28;20060;-56
2021/01/11 07:25:33;;;;;;;2.50;0.50;;;;;;;;;;5019720;28;20034;-55
2021/01/11 07:28:01;;;;;;;2.95;0.70;;;;;;;;;;5021172;28;20054;-56
2021/01/11 07:30:27;;;;;;;3.38;0.68;;;;;;;;;;5019751;28;20038;-55
2021/01/11 07:32:53;;;;;;;3.05;0.70;;;;;;;;;;5021332;28;20048;-57
2021/01/11 07:35:19;;;;;;;2.83;0.50;;;;;;;;;;5020143;28;20060;-56
2021/01/11 07:37:46;;;;;;;1.88;0.50;;;;;;;;;;5020139;28;20057;-56
2021/01/11 07:40:12;;;;;;;1.70;0.50;;;;;;;;;;5019604;28;20042;-56
2021/01/11 07:42:38;;;;;;;2.45;0.55;;;;;;;;;;5021377;28;20094;-57
2021/01/11 07:45:08;;;;;;;1.45;0.40;;;;;;;;;;5021230;28;20057;-56
2021/01/11 07:47:34;;;;;;;2.40;0.50;;;;;;;;;;5018316;28;20034;-56
2021/01/11 07:50:15;;;;;;;2.13;0.50;;;;;;;;;;5021010;23;20047;-56
2021/01/11 07:52:41;;;;;;;1.75;0.45;;;;;;;;;;5051313;23;20052;-54
2021/01/11 07:55:07;;;;;;;1.45;0.40;;;;;;;;;;5070086;28;20052;-57
2021/01/11 07:57:33;;;;;;;1.73;0.50;;;;;;;;;;5069375;28;20047;-59
2021/01/11 08:00:05;;;;;;;2.25;0.50;;;;;;;;;;5071000;28;20040;-56
2021/01/11 08:02:31;;;;;;;1.08;0.40;;;;;;;;;;5070647;28;20040;-55
2021/01/11 08:04:57;;;;;;;1.73;0.50;;;;;;;;;;5070904;28;20254;-56
2021/01/11 08:07:28;;;;;;;1.45;0.40;;;;;;;;;;5068863;28;20341;-56
2021/01/11 08:09:55;;;;;;;1.85;0.45;;;;;;;;;;5069582;28;20484;-57
2021/01/11 08:12:21;;;;;;;1.55;0.40;;;;;;;;;;5061355;28;20168;-56
2021/01/11 08:14:48;;;;;;;1.65;0.50;;;;;;;;;;5070681;28;20583;-58
2021/01/11 08:17:20;;;;;;;1.60;0.40;;;;;;;;;;5070972;28;20028;-56
2021/01/11 08:19:53;;;;;;;1.63;0.50;;;;;;;;;;5070012;28;20050;-55
2021/01/11 08:22:20;;;;;;;2.23;0.50;;;;;;;;;;5079468;28;20307;-56
2021/01/11 08:24:49;;;;;;;1.25;0.40;;;;;;;;;;5081191;28;20047;-56
2021/01/11 08:27:20;;;;;;;2.78;0.40;;;;;;;;;;5080814;28;20036;-55
2021/01/11 08:29:46;;;;;;;1.40;0.40;;;;;;;;;;5080918;28;20043;-56
2021/01/11 08:32:14;;;;;;;2.03;0.47;;;;;;;;;;5082045;28;20085;-55
2021/01/11 08:34:43;;;;;;;2.28;0.60;;;;;;;;;;5080247;27;20044;-57
2021/01/11 08:37:24;;;;;;;1.70;0.45;;;;;;;;;;5079083;28;20037;-57
2021/01/11 08:40:09;;;;;;;1.98;0.50;;;;;;;;;;5080325;28;20102;-58
2021/01/11 08:42:36;;;;;;;2.22;0.52;;;;;;;;;;5082483;28;20066;-57
2021/01/11 08:45:20;;;;;;;2.22;0.52;;;;;;;;;;5068712;28;20082;-57
2021/01/11 08:47:57;;;;;;;2.80;0.70;;;;;;;;;;5080757;28;20058;-59
2021/01/11 08:50:22;;;;;;;2.45;0.55;;;;;;;;;;5081254;28;20036;-54
2021/01/11 08:52:48;;;;;;;2.03;0.57;;;;;;;;;;5080762;28;20059;-58
2021/01/11 08:55:15;;;;;;;2.50;0.63;;;;;;;;;;5081628;28;20052;-57
2021/01/11 08:57:41;;;;;;;2.65;0.60;;;;;;;;;;5077613;28;20199;-57
2021/01/11 09:00:13;;;;;;;1.30;0.40;;;;;;;;;;5081808;28;20051;-58
2021/01/11 09:02:46;;;;;;;3.73;0.70;;;;;;;;;;5080837;28;20047;-56
2021/01/11 09:05:16;;;;;;;2.33;0.60;;;;;;;;;;5082474;28;20061;-56
2021/01/11 09:07:42;;;;;;;1.33;0.40;;;;;;;;;;5081089;28;20112;-56
2021/01/11 09:10:20;;;;;;;1.65;0.50;;;;;;;;;;5082255;28;20581;-57
2021/01/11 09:12:46;;;;;;;2.75;0.63;;;;;;;;;;5080651;28;20099;-56
2021/01/11 09:15:13;;;;;;;2.65;0.60;;;;;;;;;;5081692;28;20045;-57
2021/01/11 09:17:39;;;;;;;5.10;0.60;;;;;;;;;;5080174;28;20040;-56
2021/01/11 09:20:06;;;;;;;1.88;0.50;;;;;;;;;;5083428;28;20131;-57
2021/01/11 09:22:33;;;;;;;2.97;0.73;;;;;;;;;;5080091;28;20067;-56
2021/01/11 09:25:00;;;;;;;1.73;0.40;;;;;;;;;;5079943;28;20079;-59
2021/01/11 09:27:26;;;;;;;2.80;1.10;;;;;;;;;;5079002;27;20112;-56
2021/01/11 09:29:52;;;;;;;3.20;1.65;;;;;;;;;;5081771;28;20059;-56
2021/01/11 09:32:19;;;;;;;3.17;0.60;;;;;;;;;;5079990;28;20041;-60
2021/01/11 09:34:45;;;;;;;2.53;0.50;;;;;;;;;;5080814;28;20044;-56
2021/01/11 09:37:12;;;;;;;3.40;0.60;;;;;;;;;;5080975;28;22104;-56
2021/01/11 09:39:37;;;;;;;2.15;0.60;;;;;;;;;;5079008;28;22201;-58
2021/01/11 09:42:03;;;;;;;5.65;0.70;;;;;;;;;;5081269;28;20050;-58
2021/01/11 09:44:32;;;;;;;1.67;0.50;;;;;;;;;;5080100;28;20041;-60
2021/01/11 09:46:59;;;;;;;1.55;0.50;;;;;;;;;;5080637;28;20044;-58
2021/01/11 09:49:25;;;;;;;3.30;0.70;;;;;;;;;;5079550;28;20036;-57
2021/01/11 09:51:51;;;;;;;1.65;0.50;;;;;;;;;;5079571;28;20044;-59
2021/01/11 09:54:18;;;;;;;1.92;0.70;;;;;;;;;;5079934;28;20050;-59
2021/01/11 09:56:43;;;;;;;3.10;0.68;;;;;;;;;;5081634;28;20062;-57
2021/01/11 09:59:09;;;;;;;1.80;0.60;;;;;;;;;;5085860;28;20572;-58
2021/01/11 10:01:39;;;;;;;1.40;0.40;;;;;;;;;;5082467;28;20069;-58
2021/01/11 10:04:05;;;;;;;1.77;0.55;;;;;;;;;;5083897;28;20115;-57
2021/01/11 10:06:45;;;;;;;2.50;0.50;;;;;;;;;;5081376;28;20051;-55
2021/01/11 10:09:12;;;;;;;1.38;0.45;;;;;;;;;;5083111;28;20085;-55
2021/01/11 10:11:39;;;;;;;1.00;0.40;;;;;;;;;;5081873;28;20040;-60
2021/01/11 10:14:05;;;;;;;2.45;0.50;;;;;;;;;;5081765;27;20040;-55
2021/01/11 10:16:31;;;;;;;2.70;0.40;;;;;;;;;;5082314;28;20136;-58
2021/01/11 10:18:57;;;;;;;2.50;1.05;;;;;;;;;;5085013;28;20079;-56
2021/01/11 10:21:24;;;;;;;1.92;0.55;;;;;;;;;;5082546;28;20032;-59
2021/01/11 10:23:50;;;;;;;1.33;0.47;;;;;;;;;;5084037;28;20070;-56
2021/01/11 10:26:24;;;;;;;1.05;0.43;;;;;;;;;;5083572;27;20077;-56
2021/01/11 10:28:50;;;;;;;1.05;0.40;;;;;;;;;;5082099;28;20037;-57
2021/01/11 10:31:16;;;;;;;2.05;0.50;;;;;;;;;;5081087;28;21503;-57
2021/01/11 10:33:44;;;;;;;1.40;0.40;;;;;;;;;;5082471;28;20040;-57
2021/01/11 10:36:11;;;;;;;1.83;0.50;;;;;;;;;;5081182;28;20047;-57
2021/01/11 10:38:36;;;;;;;1.17;0.40;;;;;;;;;;5080186;28;20040;-57
2021/01/11 10:41:02;;;;;;;1.30;0.40;;;;;;;;;;5081925;28;20044;-58
2021/01/11 10:43:30;;;;;;;1.65;0.50;;;;;;;;;;5081021;28;20037;-58
2021/01/11 10:45:56;;;;;;;1.17;0.40;;;;;;;;;;5081982;28;20118;-59
2021/01/11 10:48:22;;;;;;;1.67;0.50;;;;;;;;;;5084145;28;20037;-60
2021/01/11 10:50:48;;;;;;;0.90;0.40;;;;;;;;;;5081626;28;20118;-60
2021/01/11 10:53:13;;;;;;;1.75;0.57;;;;;;;;;;5081861;28;20389;-57
2021/01/11 10:55:39;;;;;;;0.95;0.35;;;;;;;;;;5079407;28;20055;-56
2021/01/11 10:58:05;;;;;;;1.52;0.47;;;;;;;;;;5080527;28;20508;-56
2021/01/11 11:00:31;;;;;;;1.33;0.40;;;;;;;;;;5081988;28;20125;-56
2021/01/11 11:02:57;;;;;;;1.17;0.40;;;;;;;;;;5084095;28;20043;-56
2021/01/11 11:05:23;;;;;;;0.88;0.30;;;;;;;;;;5081716;28;20120;-57
2021/01/11 11:07:50;;;;;;;1.00;0.40;;;;;;;;;;5066269;28;20107;-59
2021/01/11 11:10:16;;;;;;;1.75;0.40;;;;;;;;;;5083465;28;20047;-56
2021/01/11 11:12:42;;;;;;;1.73;0.50;;;;;;;;;;5082907;28;20533;-56
2021/01/11 11:15:08;;;;;;;1.80;0.40;;;;;;;;;;5082704;28;20048;-58
2021/01/11 11:17:34;;;;;;;0.38;0.30;;;;;;;;;;5080599;28;20086;-59
2021/01/11 11:20:00;;;;;;;1.40;0.50;;;;;;;;;;5084141;28;20040;-56
2021/01/11 11:22:26;;;;;;;1.50;0.40;;;;;;;;;;5081696;28;20044;-57
2021/01/11 11:24:52;;;;;;;0.77;0.30;;;;;;;;;;5084735;27;20047;-57
2021/01/11 11:27:18;;;;;;;0.75;0.35;;;;;;;;;;5083025;28;20036;-58
2021/01/11 11:29:45;;;;;;;1.40;0.40;;;;;;;;;;5082676;27;20040;-56
2021/01/11 11:32:11;;;;;;;2.72;0.40;;;;;;;;;;5084510;28;20101;-58
2021/01/11 11:34:37;;;;;;;3.95;0.52;;;;;;;;;;5081663;28;20055;-56
2021/01/11 11:37:03;;;;;;;1.63;0.40;;;;;;;;;;5083392;28;20040;-57
2021/01/11 11:39:30;;;;;;;4.03;0.45;;;;;;;;;;5083520;28;20040;-59
2021/01/11 11:41:57;;;;;;;1.30;0.40;;;;;;;;;;5084831;28;20040;-58
2021/01/11 11:44:23;;;;;;;1.30;0.40;;;;;;;;;;5083732;28;20039;-56
2021/01/11 11:46:49;;;;;;;1.50;0.50;;;;;;;;;;5082130;28;20096;-58
2021/01/11 11:49:14;;;;;;;1.35;0.40;;;;;;;;;;5085447;28;20047;-57
2021/01/11 11:51:44;;;;;;;1.13;0.40;;;;;;;;;;5083046;28;20151;-57
2021/01/11 11:54:10;;;;;;;2.00;0.45;;;;;;;;;;5082420;28;20151;-57
2021/01/11 11:56:40;;;;;;;3.42;0.47;;;;;;;;;;5083087;28;20566;-55
2021/01/11 11:59:06;;;;;;;1.80;0.47;;;;;;;;;;5082684;28;20040;-57
2021/01/11 12:01:41;;;;;;;1.05;0.40;;;;;;;;;;5080766;28;20040;-57
2021/01/11 12:04:07;;;;;;;0.88;0.35;;;;;;;;;;5082220;28;20041;-56
2021/01/11 12:06:45;;;;;;;1.20;0.40;;;;;;;;;;5081104;28;20113;-57
2021/01/11 12:09:11;;;;;;;2.08;0.50;;;;;;;;;;5082781;28;20044;-57
2021/01/11 12:11:41;;;;;;;2.05;0.47;;;;;;;;;;5082923;27;22772;-58
2021/01/11 12:14:07;;;;;;;1.48;0.40;;;;;;;;;;5082900;28;22097;-59
2021/01/11 12:16:33;;;;;;;2.70;0.50;;;;;;;;;;5081617;28;20041;-55
2021/01/11 12:18:59;;;;;;;1.70;0.40;;;;;;;;;;5082301;28;20067;-56
2021/01/11 12:21:35;;;;;;;1.67;0.40;;;;;;;;;;5081383;27;20108;-55
2021/01/11 12:24:01;;;;;;;1.23;0.40;;;;;;;;;;5081710;28;20066;-56
2021/01/11 12:26:27;;;;;;;1.92;0.40;;;;;;;;;;5079647;28;20503;-57
2021/01/11 12:28:53;;;;;;;2.80;0.50;;;;;;;;;;5080529;28;20052;-57
2021/01/11 12:31:26;;;;;;;2.25;0.60;;;;;;;;;;5077990;28;20047;-57
2021/01/11 12:33:52;;;;;;;1.98;0.47;;;;;;;;;;5080413;28;20509;-56
2021/01/11 12:36:22;;;;;;;5.05;0.52;;;;;;;;;;5081579;27;20055;-58
2021/01/11 12:38:48;;;;;;;0.93;0.40;;;;;;;;;;5082692;28;20044;-59
2021/01/11 12:41:18;;;;;;;2.15;0.40;;;;;;;;;;5080160;28;20131;-57
2021/01/11 12:43:43;;;;;;;1.65;0.40;;;;;;;;;;5078890;28;20050;-59
2021/01/11 12:46:13;;;;;;;4.78;0.73;;;;;;;;;;5079213;28;20040;-57
2021/01/11 12:48:38;;;;;;;4.32;0.60;;;;;;;;;;5079008;28;20032;-57
2021/01/11 12:51:05;;;;;;;1.67;0.40;;;;;;;;;;5080362;28;20072;-56
2021/01/11 12:53:32;;;;;;;1.05;0.40;;;;;;;;;;5076510;28;20100;-57
2021/01/11 12:55:58;;;;;;;5.05;0.57;;;;;;;;;;5080877;28;20052;-56
2021/01/11 12:58:23;;;;;;;1.00;0.40;;;;;;;;;;5077325;28;20058;-57
2021/01/11 13:00:49;;;;;;;1.70;0.40;;;;;;;;;;5079187;28;20512;-57
2021/01/11 13:03:15;;;;;;;1.48;0.45;;;;;;;;;;5078786;28;20699;-57
2021/01/11 13:05:42;;;;;;;4.25;0.50;;;;;;;;;;5079302;28;20068;-57
2021/01/11 13:08:08;;;;;;;2.47;0.55;;;;;;;;;;5079918;28;20193;-56
2021/01/11 13:10:34;;;;;;;4.55;0.60;;;;;;;;;;5080102;28;20036;-58
2021/01/11 13:13:00;;;;;;;2.13;0.50;;;;;;;;;;5078772;28;20055;-56
2021/01/11 13:15:26;;;;;;;3.33;0.40;;;;;;;;;;5079095;28;20040;-57
2021/01/11 13:17:52;;;;;;;2.13;0.50;;;;;;;;;;5080464;27;20045;-57
2021/01/11 13:20:18;;;;;;;2.42;0.50;;;;;;;;;;5080276;28;20625;-56
2021/01/11 13:22:43;;;;;;;3.03;0.73;;;;;;;;;;5080102;27;20535;-57
2021/01/11 13:25:13;;;;;;;1.73;0.40;;;;;;;;;;5079858;28;20032;-56
2021/01/11 13:27:41;;;;;;;2.53;0.40;;;;;;;;;;5078628;28;20040;-57
2021/01/11 13:30:07;;;;;;;2.47;0.50;;;;;;;;;;5079200;28;20043;-56
2021/01/11 13:32:33;;;;;;;5.28;0.68;;;;;;;;;;5080126;27;20040;-57
2021/01/11 13:34:59;;;;;;;2.65;0.77;;;;;;;;;;5074254;28;20056;-56
2021/01/11 13:37:25;;;;;;;3.53;0.60;;;;;;;;;;5079570;28;20052;-57
2021/01/11 13:39:51;;;;;;;4.95;0.52;;;;;;;;;;5081420;28;20048;-57
2021/01/11 13:42:17;;;;;;;4.28;0.60;;;;;;;;;;5083318;28;20038;-57
2021/01/11 13:44:43;;;;;;;5.32;0.52;;;;;;;;;;5083305;28;20070;-57
2021/01/11 13:47:09;;;;;;;5.03;0.60;;;;;;;;;;5080716;28;22331;-56
2021/01/11 13:49:35;;;;;;;2.50;0.52;;;;;;;;;;5074660;28;20056;-56
2021/01/11 13:52:01;;;;;;;3.33;0.60;;;;;;;;;;5068765;28;20063;-56
2021/01/11 13:54:27;;;;;;;4.72;0.50;;;;;;;;;;5069480;28;20467;-56
2021/01/11 13:56:53;;;;;;;6.50;0.50;;;;;;;;;;5069744;28;20059;-56
2021/01/11 13:59:19;;;;;;;10.15;0.60;;;;;;;;;;5069262;28;20036;-54
2021/01/11 14:01:46;;;;;;;13.32;1.42;;;;;;;;;;5070548;28;20103;-55
2021/01/11 14:04:12;;;;;;;3.25;0.40;;;;;;;;;;5069404;28;20040;-56
2021/01/11 14:06:38;;;;;;;6.30;0.90;;;;;;;;;;5068756;28;20615;-55
2021/01/11 14:09:07;;;;;;;6.55;0.50;;;;;;;;;;5069710;28;20048;-56
2021/01/11 14:11:34;;;;;;;5.20;0.68;;;;;;;;;;5069145;28;20062;-56
2021/01/11 14:14:00;;;;;;;6.05;0.50;;;;;;;;;;5068543;28;20052;-56
2021/01/11 14:16:29;;;;;;;2.25;0.50;;;;;;;;;;5069798;28;20072;-58
2021/01/11 14:18:56;;;;;;;1.23;0.40;;;;;;;;;;5069722;28;20055;-55
2021/01/11 14:21:21;;;;;;;4.22;0.63;;;;;;;;;;5072875;28;20093;-56
2021/01/11 14:23:47;;;;;;;2.60;0.60;;;;;;;;;;5074284;28;20049;-56
2021/01/11 14:26:14;;;;;;;3.63;0.45;;;;;;;;;;5075876;28;20038;-56
2021/01/11 14:28:40;;;;;;;6.05;0.63;;;;;;;;;;5073819;28;20036;-56
2021/01/11 14:31:07;;;;;;;4.75;0.70;;;;;;;;;;5076791;28;20040;-55
2021/01/11 14:33:35;;;;;;;6.13;0.60;;;;;;;;;;5073547;28;20048;-56
2021/01/11 14:36:01;;;;;;;5.30;0.60;;;;;;;;;;5075425;28;20036;-56
2021/01/11 14:38:27;;;;;;;3.30;0.98;;;;;;;;;;5073302;28;20082;-57
2021/01/11 14:40:52;;;;;;;1.50;0.50;;;;;;;;;;5075613;28;20029;-57
2021/01/11 14:43:18;;;;;;;3.58;0.63;;;;;;;;;;5078752;28;20044;-57
2021/01/11 14:45:44;;;;;;;6.57;0.80;;;;;;;;;;5081348;28;20041;-57